Weather for June 6, 2001

@

2001/06/05 21:00 UTC Petropavlovsk UHPP METAR 052100Z 18001MPS 9999 SCT020 BKN100 05/01 Q1023 NOSIG RMK QFE 764 SC 07


2001/06/05 21:00 UTC Ugolny/Anadyr UHMA 052100Z 31003MPS 9999 FEW 16/03 Q1022 NOSIG RMK QFE761 SC70


2001/06/03 07:55 UTC Savoonga/St.Lawrence Is. PASA 030755Z AUTO 27012KT M1/4SM OVC001 M01/M02 A2994 RMK AO1


2001/06/05 20:55 UTC Eareckson/Shemya PASY 052055Z 05006KT 10SM VCFG SCT004 SCT008 OVC020 06/04 A3019 RMK SLP224 VIS SE 2 6/// 8/8// 9/8// 53012


2001/06/05 00:50 UTC Adak PADK 050050Z 24013KT 10SM FEW003 SCT020 BKN050 11/08 A3000 RMK VSBY LWR SW + NW


2001/06/05 20:53 UTC Fairbanks PAFA 052053Z VRB04KT 10SM FEW050 SCT070 BKN110 BKN200 19/07 A2977 RMK AO2 SLP084 T01890072 58007


Ads by TOK2